Time;durP1;ratioP1;P1;durP2;ratioP2;P2;SDS_P1;SDS_P2;PMS_P1;PMS_P2;Temp;Humidity;BMP_temperature;BMP_pressure;BME280_temperature;BME280_humidity;BME280_pressure;Samples;Min_cycle;Max_cycle;Signal;HPM_P1;HPM_P2
2023/09/03 00:01:58;;;;;;;12.20;2.10;;;23.20;79.50;;;;;;7403092;19;19915;-73
2023/09/03 00:04:24;;;;;;;8.80;2.38;;;23.20;79.30;;;;;;7404757;19;19935;-73
2023/09/03 00:06:49;;;;;;;5.47;1.90;;;23.20;79.20;;;;;;7402621;19;19949;-73
2023/09/03 00:09:16;;;;;;;9.38;2.42;;;23.20;79.00;;;;;;7400733;19;19919;-72
2023/09/03 00:11:42;;;;;;;9.25;2.50;;;23.20;78.90;;;;;;7405128;19;20235;-73
2023/09/03 00:14:08;;;;;;;7.97;2.47;;;23.30;78.70;;;;;;7398489;19;19937;-73
2023/09/03 00:16:34;;;;;;;9.13;2.22;;;23.30;78.60;;;;;;7405215;19;20326;-74
2023/09/03 00:18:59;;;;;;;6.03;2.22;;;23.30;78.50;;;;;;7400533;19;20350;-74
2023/09/03 00:21:25;;;;;;;10.95;2.33;;;23.20;78.80;;;;;;7404235;19;20076;-73
2023/09/03 00:23:51;;;;;;;8.68;2.35;;;23.20;79.90;;;;;;7400198;19;19922;-72
2023/09/03 00:26:21;;;;;;;6.75;2.35;;;22.90;81.90;;;;;;7400175;19;20238;-73
2023/09/03 00:28:48;;;;;;;12.38;3.30;;;22.60;84.40;;;;;;7403294;19;19951;-73
2023/09/03 00:31:13;;;;;;;;;;;22.50;85.10;;;;;;7406540;19;20382;-74
2023/09/03 00:33:39;;;;;;;6.88;2.72;;;22.50;85.00;;;;;;7407159;19;19948;-73
2023/09/03 00:36:08;;;;;;;8.88;1.98;;;22.60;84.40;;;;;;7400993;19;20252;-73
2023/09/03 00:38:34;;;;;;;7.22;2.17;;;22.80;83.10;;;;;;7400551;19;19927;-73
2023/09/03 00:41:00;;;;;;;8.80;2.33;;;22.90;82.30;;;;;;7407358;19;19914;-73
2023/09/03 00:43:27;;;;;;;8.68;2.17;;;22.90;81.40;;;;;;7399767;19;19998;-74
2023/09/03 00:45:53;;;;;;;;;;;23.00;80.80;;;;;;7403674;19;19914;-75
2023/09/03 00:48:28;;;;;;;11.25;3.70;;;23.00;80.40;;;;;;7403642;19;20286;-73
2023/09/03 00:50:58;;;;;;;9.23;2.40;;;23.00;80.00;;;;;;7407261;19;19921;-73
2023/09/03 00:53:25;;;;;;;7.80;2.22;;;23.00;79.80;;;;;;7407601;19;19925;-73
2023/09/03 00:55:52;;;;;;;9.63;2.30;;;23.00;79.10;;;;;;7408733;19;19923;-73
2023/09/03 00:58:18;;;;;;;7.57;2.60;;;23.00;79.00;;;;;;7405713;19;19974;-73
2023/09/03 01:00:45;;;;;;;5.30;1.77;;;23.00;78.90;;;;;;7405527;19;19945;-74
2023/09/03 01:03:10;;;;;;;8.25;2.25;;;23.00;78.80;;;;;;7404692;19;19923;-73
2023/09/03 01:05:36;;;;;;;8.25;2.40;;;23.00;78.70;;;;;;7400418;19;19914;-73
2023/09/03 01:08:02;;;;;;;7.78;2.50;;;23.00;78.20;;;;;;7404827;19;19982;-73
2023/09/03 01:10:45;;;;;;;6.95;2.20;;;23.00;77.70;;;;;;7404579;19;20029;-72
2023/09/03 01:13:17;;;;;;;8.02;2.35;;;23.00;77.50;;;;;;7407715;19;19922;-73
2023/09/03 01:15:48;;;;;;;10.45;2.33;;;23.00;77.10;;;;;;7399007;19;19937;-73
2023/09/03 01:18:18;;;;;;;10.00;2.42;;;23.10;76.90;;;;;;7403902;19;19919;-72
2023/09/03 01:21:02;;;;;;;7.55;1.90;;;23.10;76.60;;;;;;7404952;19;19919;-73
2023/09/03 01:23:46;;;;;;;7.32;2.20;;;23.10;76.80;;;;;;7404744;19;19914;-73
2023/09/03 01:26:24;;;;;;;7.00;2.30;;;23.10;75.90;;;;;;7403336;19;19934;-73
2023/09/03 01:28:51;;;;;;;7.22;2.20;;;23.20;75.80;;;;;;7400686;19;20362;-73
2023/09/03 01:31:19;;;;;;;7.88;2.17;;;23.10;75.60;;;;;;7401904;19;19918;-73
2023/09/03 01:33:48;;;;;;;6.50;2.13;;;23.20;75.40;;;;;;7402326;19;19918;-73
2023/09/03 01:36:15;;;;;;;6.03;2.00;;;23.10;75.20;;;;;;7402876;19;19919;-73
2023/09/03 01:38:41;;;;;;;5.65;2.05;;;23.10;74.80;;;;;;7354513;19;20492;-73
2023/09/03 01:41:07;;;;;;;8.43;2.50;;;23.10;74.80;;;;;;7404009;19;19936;-73
2023/09/03 01:43:34;;;;;;;11.90;2.30;;;23.10;74.80;;;;;;7401370;19;20310;-73
2023/09/03 01:46:21;;;;;;;6.68;1.95;;;23.00;74.70;;;;;;7401358;19;19918;-73
2023/09/03 01:49:05;;;;;;;6.03;2.10;;;22.90;74.80;;;;;;7404416;19;19993;-73
2023/09/03 01:52:09;;;;;;;7.10;2.03;;;22.90;75.10;;;;;;7400531;19;19922;-73
2023/09/03 01:54:47;;;;;;;5.30;1.63;;;22.80;75.30;;;;;;7399266;19;19903;-73
2023/09/03 01:57:29;;;;;;;6.22;1.92;;;22.80;75.50;;;;;;7398622;19;19966;-72
2023/09/03 01:59:57;;;;;;;8.10;2.22;;;22.70;75.60;;;;;;7402464;19;19942;-72
2023/09/03 02:02:24;;;;;;;9.57;2.42;;;22.70;75.80;;;;;;7397456;19;20018;-73
2023/09/03 02:04:51;;;;;;;5.47;1.98;;;22.60;75.90;;;;;;7401517;19;20322;-74
2023/09/03 02:07:17;;;;;;;7.82;2.35;;;22.60;76.00;;;;;;7401747;19;19938;-73
2023/09/03 02:09:43;;;;;;;6.55;2.03;;;22.60;76.20;;;;;;7399700;19;19923;-72
2023/09/03 02:12:09;;;;;;;6.15;1.85;;;22.50;76.30;;;;;;7398340;19;19970;-73
2023/09/03 02:14:35;;;;;;;8.45;2.28;;;22.50;76.40;;;;;;7401898;19;19911;-72
2023/09/03 02:17:01;;;;;;;6.47;2.08;;;22.50;76.50;;;;;;7398535;19;20013;-72
2023/09/03 02:19:27;;;;;;;6.57;2.00;;;22.50;76.50;;;;;;7396511;19;19959;-73
2023/09/03 02:21:53;;;;;;;4.45;1.75;;;22.60;76.60;;;;;;7399082;19;20325;-72
2023/09/03 02:24:19;;;;;;;7.75;1.98;;;22.50;76.50;;;;;;7396306;19;19915;-73
2023/09/03 02:26:46;;;;;;;7.07;2.20;;;22.50;76.50;;;;;;7402230;19;19919;-73
2023/09/03 02:29:13;;;;;;;6.40;2.00;;;22.50;76.40;;;;;;7400694;19;20331;-73
2023/09/03 02:31:39;;;;;;;6.22;2.08;;;22.50;76.40;;;;;;7389182;19;19925;-73
2023/09/03 02:34:06;;;;;;;5.97;2.20;;;22.60;76.30;;;;;;7396529;19;19907;-73
2023/09/03 02:36:34;;;;;;;6.18;1.88;;;22.50;76.10;;;;;;7399821;19;19921;-72
2023/09/03 02:39:05;;;;;;;6.78;2.35;;;22.50;76.10;;;;;;7399966;19;19938;-73
2023/09/03 02:41:31;;;;;;;6.53;2.22;;;22.50;75.90;;;;;;7397792;19;20230;-73
2023/09/03 02:43:58;;;;;;;11.98;2.28;;;22.60;75.70;;;;;;7400355;19;19961;-72
2023/09/03 02:46:25;;;;;;;7.45;2.75;;;22.60;75.40;;;;;;7395383;19;19937;-73
2023/09/03 02:48:51;;;;;;;6.53;1.85;;;22.60;75.30;;;;;;7396905;19;19918;-72
2023/09/03 02:51:17;;;;;;;;;;;22.60;74.90;;;;;;7401777;19;20381;-73
2023/09/03 02:53:45;;;;;;;7.72;2.03;;;22.60;74.70;;;;;;7399717;19;19926;-73
2023/09/03 02:56:12;;;;;;;8.13;2.30;;;22.60;74.60;;;;;;7398313;19;20006;-73
2023/09/03 02:58:39;;;;;;;6.13;2.20;;;22.70;74.30;;;;;;7397514;19;19914;-72
2023/09/03 03:01:07;;;;;;;6.30;2.15;;;22.70;74.20;;;;;;7399192;19;19941;-74
2023/09/03 03:03:34;;;;;;;5.38;2.30;;;22.70;74.10;;;;;;7395558;19;20401;-72
2023/09/03 03:06:01;;;;;;;5.30;1.88;;;22.70;74.10;;;;;;7402764;19;20788;-73
2023/09/03 03:08:26;;;;;;;7.28;2.25;;;22.70;74.20;;;;;;7399927;19;19918;-72
2023/09/03 03:10:52;;;;;;;6.30;1.75;;;22.60;73.90;;;;;;7406343;19;19922;-73
2023/09/03 03:13:18;;;;;;;5.50;1.70;;;22.60;74.00;;;;;;7404970;19;20356;-73
2023/09/03 03:15:46;;;;;;;5.15;2.47;;;22.50;73.90;;;;;;7413259;19;19922;-73
2023/09/03 03:18:12;;;;;;;8.32;2.22;;;22.50;73.80;;;;;;7405859;19;19918;-73
2023/09/03 03:20:37;;;;;;;6.30;1.70;;;22.50;73.80;;;;;;7413316;19;19914;-73
2023/09/03 03:23:03;;;;;;;6.28;1.73;;;22.40;73.60;;;;;;7409194;19;19929;-72
2023/09/03 03:25:29;;;;;;;6.25;1.95;;;22.40;73.60;;;;;;7406015;19;19923;-72
2023/09/03 03:27:55;;;;;;;5.07;1.55;;;22.40;73.40;;;;;;7407375;19;20327;-72
2023/09/03 03:30:21;;;;;;;7.53;1.80;;;22.40;73.30;;;;;;7398188;19;19994;-71
2023/09/03 03:32:46;;;;;;;6.18;1.77;;;22.30;73.30;;;;;;7398163;19;19936;-71
2023/09/03 03:35:12;;;;;;;4.43;1.70;;;22.30;73.20;;;;;;7399391;19;19922;-71
2023/09/03 03:37:38;;;;;;;4.85;1.90;;;22.30;73.10;;;;;;7406839;19;19979;-72
2023/09/03 03:40:06;;;;;;;4.60;1.88;;;22.30;73.00;;;;;;7397891;19;19914;-72
2023/09/03 03:42:32;;;;;;;5.20;1.90;;;22.30;73.00;;;;;;7401523;19;19914;-72
2023/09/03 03:44:58;;;;;;;6.43;1.90;;;22.30;72.90;;;;;;7403590;19;20330;-72
2023/09/03 03:47:23;;;;;;;5.07;1.95;;;22.30;72.70;;;;;;7402771;19;19925;-72
2023/09/03 03:49:49;;;;;;;7.00;2.03;;;22.30;72.60;;;;;;7401009;19;20153;-73
2023/09/03 03:52:15;;;;;;;6.40;2.40;;;22.30;72.40;;;;;;7403522;19;19914;-72
2023/09/03 03:54:41;;;;;;;6.10;1.90;;;22.30;72.40;;;;;;7404469;19;19925;-72
2023/09/03 03:57:07;;;;;;;5.88;2.13;;;22.20;72.40;;;;;;7402078;19;20338;-72
2023/09/03 03:59:33;;;;;;;5.60;1.90;;;22.10;72.30;;;;;;7404930;19;19910;-72
2023/09/03 04:01:59;;;;;;;6.03;1.73;;;22.10;72.30;;;;;;7404701;19;19911;-73
2023/09/03 04:04:25;;;;;;;6.13;2.15;;;22.10;72.20;;;;;;7404532;19;19918;-72
2023/09/03 04:06:50;;;;;;;5.35;1.90;;;22.10;72.30;;;;;;7403500;19;19922;-72
2023/09/03 04:09:16;;;;;;;6.45;2.03;;;22.10;71.80;;;;;;7401257;19;19911;-72
2023/09/03 04:11:42;;;;;;;5.65;1.60;;;22.00;71.80;;;;;;7400429;19;19925;-72
2023/09/03 04:14:08;;;;;;;4.47;1.80;;;22.00;71.90;;;;;;7401984;19;19946;-72
2023/09/03 04:16:33;;;;;;;5.82;2.00;;;21.90;71.70;;;;;;7405762;19;20455;-72
2023/09/03 04:18:59;;;;;;;6.63;2.20;;;22.00;71.50;;;;;;7407206;19;19918;-72
2023/09/03 04:21:25;;;;;;;6.55;1.90;;;22.00;71.00;;;;;;7403089;19;19932;-72
2023/09/03 04:23:51;;;;;;;5.47;1.88;;;22.00;71.00;;;;;;7406464;19;19927;-72
2023/09/03 04:26:16;;;;;;;5.88;1.60;;;22.00;70.60;;;;;;7396186;19;19915;-71
2023/09/03 04:28:43;;;;;;;5.40;1.80;;;22.00;70.20;;;;;;7403001;19;19918;-71
2023/09/03 04:31:09;;;;;;;4.72;1.83;;;22.00;69.90;;;;;;7400750;19;19922;-72
2023/09/03 04:33:36;;;;;;;5.18;1.90;;;22.00;69.90;;;;;;7400084;19;19933;-72
2023/09/03 04:36:02;;;;;;;5.28;1.80;;;21.90;69.80;;;;;;7350052;19;19919;-72
2023/09/03 04:38:29;;;;;;;5.72;1.83;;;22.00;69.80;;;;;;7403017;19;19919;-71
2023/09/03 04:40:56;;;;;;;4.72;2.00;;;22.00;69.70;;;;;;7403269;19;19934;-71
2023/09/03 04:43:23;;;;;;;5.05;2.38;;;22.00;69.40;;;;;;7401698;19;20325;-71
2023/09/03 04:45:50;;;;;;;4.65;1.70;;;22.00;69.20;;;;;;7399105;19;19951;-71
2023/09/03 04:48:17;;;;;;;6.40;1.55;;;22.00;69.00;;;;;;7401302;19;19915;-72
2023/09/03 04:50:43;;;;;;;5.65;2.10;;;22.00;68.90;;;;;;7400185;19;19922;-73
2023/09/03 04:53:11;;;;;;;5.65;1.95;;;22.00;68.70;;;;;;7344825;19;19910;-72
2023/09/03 04:55:38;;;;;;;6.13;1.88;;;22.00;68.70;;;;;;7404148;19;19945;-73
2023/09/03 04:58:04;;;;;;;5.28;1.90;;;22.00;68.80;;;;;;7398271;19;19914;-71
2023/09/03 05:00:30;;;;;;;4.70;2.05;;;22.00;68.70;;;;;;7401551;19;19926;-72
2023/09/03 05:02:59;;;;;;;5.43;1.80;;;22.00;68.80;;;;;;7401109;19;20018;-71
2023/09/03 05:05:24;;;;;;;4.63;1.60;;;21.90;68.90;;;;;;7406343;19;20003;-72
2023/09/03 05:07:51;;;;;;;5.65;1.85;;;21.90;69.10;;;;;;7399668;19;20370;-71
2023/09/03 05:10:17;;;;;;;6.78;1.85;;;21.90;69.30;;;;;;7347829;19;20628;-72
2023/09/03 05:12:44;;;;;;;6.78;2.22;;;21.90;69.40;;;;;;7403363;19;19926;-72
2023/09/03 05:15:11;;;;;;;6.97;1.75;;;21.90;69.60;;;;;;7397836;19;20326;-71
2023/09/03 05:17:38;;;;;;;4.82;1.85;;;21.90;69.60;;;;;;7403700;19;19914;-71
2023/09/03 05:20:04;;;;;;;5.95;1.90;;;21.80;69.70;;;;;;7399028;19;19910;-72
2023/09/03 05:22:30;;;;;;;5.72;2.10;;;21.80;69.80;;;;;;7402984;19;19922;-72
2023/09/03 05:24:56;;;;;;;5.47;1.98;;;21.80;69.90;;;;;;7399244;19;20262;-72
2023/09/03 05:27:23;;;;;;;5.75;1.98;;;21.80;70.10;;;;;;7400894;19;19934;-72
2023/09/03 05:29:49;;;;;;;5.55;1.90;;;21.90;70.20;;;;;;7401317;19;19910;-71
2023/09/03 05:32:15;;;;;;;5.25;1.70;;;21.90;70.30;;;;;;7404422;19;19939;-72
2023/09/03 05:34:40;;;;;;;6.85;2.40;;;21.90;70.20;;;;;;7402114;19;20357;-72
2023/09/03 05:37:06;;;;;;;5.75;2.00;;;21.90;70.10;;;;;;7400652;19;19943;-72
2023/09/03 05:39:32;;;;;;;5.53;1.70;;;22.00;70.20;;;;;;7404018;19;19925;-72
2023/09/03 05:41:58;;;;;;;5.85;1.92;;;22.00;70.10;;;;;;7402311;19;19923;-71
2023/09/03 05:44:24;;;;;;;9.23;2.45;;;22.10;70.20;;;;;;7403100;19;19990;-72
2023/09/03 05:46:50;;;;;;;6.65;1.98;;;22.10;70.00;;;;;;7399707;19;20310;-72
2023/09/03 05:49:16;;;;;;;7.68;2.10;;;22.20;69.70;;;;;;7403353;19;19910;-72
2023/09/03 05:51:42;;;;;;;9.43;2.47;;;22.30;69.50;;;;;;7401770;19;20631;-71
2023/09/03 05:54:08;;;;;;;5.47;1.92;;;22.30;69.20;;;;;;7396252;19;19926;-73
2023/09/03 05:56:37;;;;;;;5.82;1.73;;;22.30;68.90;;;;;;7399124;19;19926;-72
2023/09/03 05:59:08;;;;;;;5.43;2.05;;;22.40;68.50;;;;;;7399437;19;20334;-72
2023/09/03 06:01:35;;;;;;;8.23;2.17;;;22.40;68.40;;;;;;7399635;19;19926;-72
2023/09/03 06:04:09;;;;;;;7.25;2.25;;;22.50;68.80;;;;;;7402343;19;19921;-71
2023/09/03 06:06:37;;;;;;;4.97;2.15;;;22.50;68.10;;;;;;7401358;19;19918;-72
2023/09/03 06:09:05;;;;;;;7.93;1.73;;;22.50;68.10;;;;;;7404113;19;20250;-72
2023/09/03 06:11:34;;;;;;;5.13;1.75;;;22.50;68.00;;;;;;7401611;19;20320;-73
2023/09/03 06:14:00;;;;;;;5.00;2.22;;;22.50;67.70;;;;;;7399442;19;19911;-72
2023/09/03 06:16:26;;;;;;;6.65;1.98;;;22.50;67.60;;;;;;7400299;19;20323;-72
2023/09/03 06:18:52;;;;;;;6.28;1.95;;;22.50;67.50;;;;;;7401975;19;19921;-72
2023/09/03 06:21:18;;;;;;;6.35;2.00;;;22.50;67.60;;;;;;7401382;19;19914;-73
2023/09/03 06:23:44;;;;;;;8.75;2.55;;;22.60;67.50;;;;;;7401435;19;20338;-73
2023/09/03 06:26:10;;;;;;;8.57;2.47;;;22.60;67.50;;;;;;7399289;19;19927;-73
2023/09/03 06:28:36;;;;;;;5.63;2.30;;;22.60;67.60;;;;;;7396884;19;20452;-74
2023/09/03 06:31:02;;;;;;;7.35;2.05;;;22.60;67.20;;;;;;7396200;19;19915;-72
2023/09/03 06:33:27;;;;;;;7.82;2.25;;;22.70;67.20;;;;;;7395283;19;19915;-72
2023/09/03 06:35:53;;;;;;;7.50;2.97;;;22.70;67.10;;;;;;7404568;19;20341;-72
2023/09/03 06:38:19;;;;;;;7.40;2.25;;;22.70;67.00;;;;;;7400167;19;19966;-73
2023/09/03 06:40:45;;;;;;;7.85;2.30;;;22.70;66.70;;;;;;7402143;19;19932;-72
2023/09/03 06:43:11;;;;;;;6.53;2.08;;;22.70;66.70;;;;;;7397779;19;19922;-72
2023/09/03 06:45:37;;;;;;;4.82;1.83;;;22.80;66.60;;;;;;7398098;19;20231;-72
2023/09/03 06:48:03;;;;;;;5.82;1.95;;;22.80;66.50;;;;;;7399233;19;20014;-72
2023/09/03 06:50:28;;;;;;;7.70;2.28;;;22.70;66.30;;;;;;7401912;19;20366;-72
2023/09/03 06:52:54;;;;;;;5.88;1.83;;;22.80;66.30;;;;;;7402379;19;20529;-73
2023/09/03 06:55:20;;;;;;;6.40;2.00;;;22.80;66.20;;;;;;7398779;19;19922;-74
2023/09/03 06:57:46;;;;;;;6.32;1.92;;;22.80;66.20;;;;;;7397415;19;19914;-72
2023/09/03 07:00:12;;;;;;;6.93;2.08;;;22.80;65.70;;;;;;7398899;19;19911;-73
2023/09/03 07:02:38;;;;;;;11.80;2.63;;;22.80;65.70;;;;;;7392036;19;20278;-72
2023/09/03 07:05:04;;;;;;;6.75;2.20;;;22.80;65.70;;;;;;7396735;19;19926;-72
2023/09/03 07:07:30;;;;;;;6.30;2.25;;;22.90;65.70;;;;;;7398788;19;19922;-73
2023/09/03 07:09:55;;;;;;;8.52;2.03;;;22.80;65.50;;;;;;7393992;19;19907;-73
2023/09/03 07:12:22;;;;;;;7.93;2.42;;;22.90;65.50;;;;;;7396852;19;19931;-73
2023/09/03 07:14:47;;;;;;;16.40;9.05;;;22.90;65.30;;;;;;7401466;19;19922;-73
2023/09/03 07:17:13;;;;;;;9.23;2.88;;;23.00;65.10;;;;;;7397919;19;19951;-72
2023/09/03 07:19:39;;;;;;;7.75;2.20;;;23.00;64.80;;;;;;7400779;19;19942;-72
2023/09/03 07:22:05;;;;;;;5.97;1.90;;;23.10;64.50;;;;;;7394895;19;19926;-72
2023/09/03 07:24:31;;;;;;;8.35;2.28;;;23.20;64.20;;;;;;7394198;19;19921;-71
2023/09/03 07:26:57;;;;;;;;;;;23.20;63.90;;;;;;7402257;19;19989;-71
2023/09/03 07:29:23;;;;;;;8.75;2.45;;;23.30;63.50;;;;;;7394101;19;20027;-71
2023/09/03 07:31:48;;;;;;;6.28;2.13;;;23.40;63.40;;;;;;7395488;19;20335;-71
2023/09/03 07:34:14;;;;;;;8.13;2.42;;;23.50;62.60;;;;;;7392405;19;20374;-71
2023/09/03 07:36:40;;;;;;;6.88;2.53;;;23.60;62.00;;;;;;7395174;19;19931;-71
2023/09/03 07:39:09;;;;;;;8.45;2.08;;;23.70;61.80;;;;;;7395284;19;19939;-72
2023/09/03 07:41:36;;;;;;;10.57;2.67;;;23.90;61.30;;;;;;7393051;19;19919;-72
2023/09/03 07:44:01;;;;;;;7.30;1.92;;;23.90;61.00;;;;;;7398138;19;19919;-72
2023/09/03 07:46:27;;;;;;;8.85;2.38;;;23.90;60.70;;;;;;7396308;19;19950;-71
2023/09/03 07:48:54;;;;;;;5.90;2.03;;;24.00;59.90;;;;;;7394616;19;20632;-72
2023/09/03 07:51:23;;;;;;;7.30;1.83;;;24.00;59.60;;;;;;7393113;19;19910;-72
2023/09/03 07:53:51;;;;;;;7.50;2.00;;;24.00;59.10;;;;;;7396974;19;19926;-73
2023/09/03 07:56:18;;;;;;;5.40;1.77;;;24.00;58.40;;;;;;7394643;19;19941;-72
2023/09/03 07:58:44;;;;;;;6.10;2.10;;;24.00;58.10;;;;;;7398105;19;19922;-72
2023/09/03 08:01:11;;;;;;;6.60;2.30;;;24.10;57.60;;;;;;7395347;19;19915;-72
2023/09/03 08:03:42;;;;;;;8.05;2.00;;;24.10;57.70;;;;;;7406233;19;19955;-72
2023/09/03 08:06:08;;;;;;;4.85;1.83;;;24.10;57.50;;;;;;7401585;19;19925;-71
2023/09/03 08:08:35;;;;;;;5.57;2.00;;;24.00;57.50;;;;;;7396391;19;19917;-73
2023/09/03 08:11:01;;;;;;;5.32;2.33;;;24.00;57.60;;;;;;7401586;19;19910;-71
2023/09/03 08:13:27;;;;;;;12.73;6.38;;;23.90;57.70;;;;;;7398630;19;20010;-71
2023/09/03 08:15:53;;;;;;;7.18;3.28;;;23.90;57.60;;;;;;7403271;19;19936;-72
2023/09/03 08:18:19;;;;;;;6.95;2.22;;;23.90;57.70;;;;;;7398073;19;20333;-71
2023/09/03 08:20:45;;;;;;;6.05;2.00;;;23.80;57.80;;;;;;7404585;19;19926;-71
2023/09/03 08:23:12;;;;;;;7.70;2.10;;;23.80;58.10;;;;;;7402213;19;19958;-71
2023/09/03 08:25:39;;;;;;;5.95;2.08;;;23.70;58.30;;;;;;7399208;19;20531;-72
2023/09/03 08:28:05;;;;;;;6.72;2.45;;;23.70;58.60;;;;;;7399275;19;20401;-72
2023/09/03 08:30:31;;;;;;;12.20;2.80;;;23.70;58.80;;;;;;7400957;19;20265;-72
2023/09/03 08:32:57;;;;;;;6.43;1.80;;;23.70;58.70;;;;;;7399463;19;20394;-72
2023/09/03 08:35:23;;;;;;;5.80;2.13;;;23.70;58.50;;;;;;7400086;19;19939;-71
2023/09/03 08:37:49;;;;;;;5.68;2.15;;;23.80;58.50;;;;;;7404533;19;19922;-72
2023/09/03 08:40:17;;;;;;;8.07;2.03;;;23.90;58.40;;;;;;7399146;19;19932;-71
2023/09/03 08:42:48;;;;;;;6.57;2.03;;;23.90;58.50;;;;;;7403199;19;19926;-71
2023/09/03 08:45:17;;;;;;;5.30;2.15;;;24.00;58.50;;;;;;7400475;19;20330;-71
2023/09/03 08:47:44;;;;;;;8.70;2.42;;;24.00;58.20;;;;;;7397122;19;19925;-71
2023/09/03 08:50:17;;;;;;;5.32;2.10;;;24.10;57.80;;;;;;7398824;19;19923;-70
2023/09/03 08:52:44;;;;;;;5.38;2.20;;;24.20;56.70;;;;;;7394088;19;19910;-70
2023/09/03 08:55:12;;;;;;;5.43;2.05;;;24.30;55.90;;;;;;7395580;19;20247;-71
2023/09/03 08:57:38;;;;;;;5.85;1.92;;;24.40;54.70;;;;;;7398192;19;20275;-71
2023/09/03 09:00:08;;;;;;;8.02;2.85;;;24.50;54.00;;;;;;7400980;19;19922;-71
2023/09/03 09:02:35;;;;;;;5.90;2.70;;;24.60;52.80;;;;;;7399772;19;19927;-71
2023/09/03 09:05:11;;;;;;;8.13;2.20;;;24.70;52.00;;;;;;7373618;19;19915;-71
2023/09/03 09:07:37;;;;;;;6.15;1.63;;;24.90;51.70;;;;;;7376747;19;19934;-70
2023/09/03 09:10:09;;;;;;;7.50;2.00;;;25.00;50.90;;;;;;7378590;19;19918;-72
2023/09/03 09:12:48;;;;;;;5.70;2.05;;;25.10;50.20;;;;;;7375358;19;19919;-71
2023/09/03 09:15:14;;;;;;;6.72;2.00;;;25.20;49.50;;;;;;7371877;19;19918;-71
2023/09/03 09:17:41;;;;;;;6.68;2.20;;;25.30;49.20;;;;;;7372746;19;19978;-70
2023/09/03 09:20:09;;;;;;;5.38;1.95;;;25.30;48.00;;;;;;7378487;19;19914;-69
2023/09/03 09:22:53;;;;;;;4.15;1.65;;;25.30;47.70;;;;;;7381026;19;19934;-71
2023/09/03 09:25:24;;;;;;;6.38;2.00;;;25.30;47.50;;;;;;7368853;19;19910;-71
2023/09/03 09:27:52;;;;;;;5.85;1.67;;;25.30;47.40;;;;;;7376262;19;19918;-72
2023/09/03 09:30:21;;;;;;;5.60;2.20;;;25.40;47.60;;;;;;7368916;19;20483;-71
2023/09/03 09:32:47;;;;;;;6.65;2.13;;;25.40;47.50;;;;;;7375298;19;19911;-70
2023/09/03 09:35:26;;;;;;;4.57;1.83;;;25.50;47.50;;;;;;7370959;19;20341;-71
2023/09/03 09:37:52;;;;;;;;;;;25.50;47.60;;;;;;7383805;19;19922;-71
2023/09/03 09:40:29;;;;;;;5.20;1.70;;;25.50;46.90;;;;;;7379736;19;19926;-72
2023/09/03 09:43:00;;;;;;;6.03;2.00;;;25.50;46.20;;;;;;7377115;19;19918;-70
2023/09/03 09:45:46;;;;;;;4.82;1.75;;;25.60;46.10;;;;;;7375210;19;19911;-71
2023/09/03 09:48:12;;;;;;;7.38;2.15;;;25.60;46.10;;;;;;7383559;19;20655;-70
2023/09/03 09:50:40;;;;;;;22.63;3.10;;;25.70;46.10;;;;;;7353363;19;19990;-72
2023/09/03 09:53:23;;;;;;;24.95;3.90;;;25.70;45.70;;;;;;7373241;19;19957;-69
2023/09/03 09:55:58;;;;;;;8.48;1.70;;;25.70;45.60;;;;;;7370023;19;19906;-70
2023/09/03 09:58:35;;;;;;;5.80;1.75;;;25.70;45.70;;;;;;7351643;19;19971;-72
2023/09/03 10:01:00;;;;;;;4.07;1.52;;;25.60;45.70;;;;;;7397988;19;19914;-69
2023/09/03 10:03:40;;;;;;;4.70;1.60;;;25.70;45.20;;;;;;7402092;19;20282;-70
2023/09/03 10:06:07;;;;;;;5.22;1.70;;;25.60;45.10;;;;;;7398959;19;19919;-69
2023/09/03 10:08:34;;;;;;;4.60;1.77;;;25.80;44.70;;;;;;7402188;19;19923;-71
2023/09/03 10:11:00;;;;;;;6.53;2.05;;;26.00;44.10;;;;;;7399600;19;19914;-70
2023/09/03 10:13:26;;;;;;;7.28;2.13;;;26.10;44.10;;;;;;7399221;19;20306;-69
2023/09/03 10:15:53;;;;;;;5.75;1.90;;;26.20;43.90;;;;;;7397113;19;19968;-70
2023/09/03 10:18:19;;;;;;;4.43;1.60;;;26.20;43.50;;;;;;7400849;19;19915;-71
2023/09/03 10:20:48;;;;;;;6.78;1.90;;;26.30;43.70;;;;;;7400647;19;19917;-70
2023/09/03 10:23:18;;;;;;;4.80;1.77;;;26.20;43.00;;;;;;7397798;19;19910;-71
2023/09/03 10:25:46;;;;;;;9.77;2.80;;;26.10;42.70;;;;;;7400214;19;20351;-70
2023/09/03 10:28:13;;;;;;;4.70;1.75;;;26.20;42.30;;;;;;7398653;19;19935;-70
2023/09/03 10:30:42;;;;;;;5.38;2.05;;;26.30;41.70;;;;;;7401000;19;19925;-70
2023/09/03 10:33:09;;;;;;;6.90;1.85;;;26.40;41.30;;;;;;7400727;19;19974;-71
2023/09/03 10:35:35;;;;;;;6.18;2.00;;;26.50;41.10;;;;;;7397166;19;20309;-71
2023/09/03 10:38:02;;;;;;;3.80;1.98;;;26.60;41.40;;;;;;7402371;19;19919;-70
2023/09/03 10:40:28;;;;;;;4.78;1.65;;;26.70;41.10;;;;;;7398268;19;19919;-70
2023/09/03 10:43:18;;;;;;;4.45;2.10;;;26.80;40.90;;;;;;7400392;19;19937;-71
2023/09/03 10:46:04;;;;;;;5.13;1.75;;;26.80;40.20;;;;;;7397411;19;19918;-71
2023/09/03 10:48:30;;;;;;;4.07;1.75;;;27.10;39.70;;;;;;7400209;19;19990;-70
2023/09/03 10:50:56;;;;;;;5.75;1.95;;;27.30;39.30;;;;;;7400754;19;19922;-70
2023/09/03 10:53:41;;;;;;;5.70;1.73;;;27.60;38.80;;;;;;7401853;19;19979;-70
2023/09/03 10:56:13;;;;;;;6.30;3.03;;;27.80;38.20;;;;;;7399201;19;20638;-71
2023/09/03 10:58:55;;;;;;;7.75;1.98;;;28.10;38.00;;;;;;7399504;19;19919;-70
2023/09/03 11:01:32;;;;;;;4.47;1.98;;;28.30;37.60;;;;;;7398814;19;19922;-71
2023/09/03 11:03:59;;;;;;;7.07;2.53;;;28.80;37.30;;;;;;7400156;19;19970;-70
2023/09/03 11:06:32;;;;;;;6.03;1.80;;;29.10;36.60;;;;;;7399365;19;19937;-71
2023/09/03 11:09:03;;;;;;;6.43;2.45;;;29.30;36.40;;;;;;7397913;19;19922;-71
2023/09/03 11:11:33;;;;;;;5.20;2.30;;;29.60;36.00;;;;;;7399498;19;20283;-70
2023/09/03 11:13:59;;;;;;;4.80;2.78;;;29.90;35.70;;;;;;7400787;19;19919;-70
2023/09/03 11:16:29;;;;;;;6.35;2.92;;;30.10;35.40;;;;;;7400344;19;19942;-70
2023/09/03 11:18:55;;;;;;;5.72;3.42;;;30.20;35.40;;;;;;7396875;19;20031;-71
2023/09/03 11:21:27;;;;;;;;;;;30.40;34.60;;;;;;7403425;19;19919;-70
2023/09/03 11:24:08;;;;;;;7.72;3.47;;;30.40;34.50;;;;;;7399955;19;19922;-70
2023/09/03 11:26:35;;;;;;;5.80;2.60;;;30.60;35.40;;;;;;7396619;19;20466;-70
2023/09/03 11:29:02;;;;;;;5.43;3.00;;;31.10;34.20;;;;;;7400529;19;19925;-71
2023/09/03 11:31:28;;;;;;;4.82;2.08;;;31.40;33.80;;;;;;7399181;19;20256;-70
2023/09/03 11:33:58;;;;;;;5.43;3.80;;;31.40;33.30;;;;;;7398363;19;19948;-71
2023/09/03 11:36:27;;;;;;;6.55;3.22;;;31.50;32.70;;;;;;7402059;19;19915;-71
2023/09/03 11:38:55;;;;;;;7.25;4.15;;;31.80;32.30;;;;;;7406175;19;19918;-70
2023/09/03 11:41:21;;;;;;;6.07;2.33;;;31.70;32.00;;;;;;7404402;19;20254;-71
2023/09/03 11:43:47;;;;;;;;;;;31.70;31.90;;;;;;7409270;19;19930;-71
2023/09/03 11:46:18;;;;;;;5.90;3.80;;;31.60;31.90;;;;;;7406618;19;20274;-71
2023/09/03 11:48:53;;;;;;;4.88;3.00;;;31.50;32.20;;;;;;7404962;19;19929;-70
2023/09/03 11:51:23;;;;;;;8.57;5.05;;;31.20;32.90;;;;;;7404867;19;20117;-71
2023/09/03 11:53:49;;;;;;;5.18;3.88;;;31.10;33.00;;;;;;7350070;19;19919;-71
2023/09/03 11:56:20;;;;;;;6.05;3.60;;;31.00;32.90;;;;;;7400945;19;19918;-72
2023/09/03 11:58:58;;;;;;;6.25;3.13;;;30.90;32.90;;;;;;7403934;19;19918;-71
2023/09/03 12:01:24;;;;;;;6.63;3.55;;;30.70;32.50;;;;;;7404972;19;20006;-71
2023/09/03 12:03:51;;;;;;;5.55;3.03;;;30.70;32.30;;;;;;7404993;19;19926;-71
2023/09/03 12:06:18;;;;;;;7.13;3.40;;;30.90;32.00;;;;;;7402879;19;19926;-71
2023/09/03 12:08:44;;;;;;;6.35;2.85;;;31.30;31.70;;;;;;7405964;19;19922;-71
2023/09/03 12:11:11;;;;;;;6.32;3.58;;;31.70;31.20;;;;;;7404352;19;20357;-71
2023/09/03 12:13:39;;;;;;;7.22;3.40;;;31.90;30.90;;;;;;7403400;19;19923;-71
2023/09/03 12:16:10;;;;;;;5.30;3.30;;;31.50;31.10;;;;;;7400832;19;20343;-71
2023/09/03 12:18:37;;;;;;;5.35;3.20;;;31.40;31.60;;;;;;7351330;19;19923;-70
2023/09/03 12:21:07;;;;;;;7.45;2.47;;;31.30;31.70;;;;;;7403604;19;20236;-71
2023/09/03 12:23:35;;;;;;;5.75;3.55;;;31.50;31.40;;;;;;7404298;19;20493;-70
2023/09/03 12:26:02;;;;;;;6.10;2.40;;;31.50;31.40;;;;;;7402930;19;20256;-71
2023/09/03 12:28:38;;;;;;;5.40;3.15;;;31.60;31.20;;;;;;7400963;19;19935;-71
2023/09/03 12:31:05;;;;;;;6.82;3.70;;;31.80;31.10;;;;;;7401093;19;20690;-71
2023/09/03 12:33:37;;;;;;;6.30;2.92;;;31.90;31.30;;;;;;7402882;19;19981;-72
2023/09/03 12:36:13;;;;;;;5.25;4.00;;;32.20;30.90;;;;;;7403056;19;19928;-71
2023/09/03 12:38:51;;;;;;;6.03;3.22;;;32.30;30.60;;;;;;7402611;19;19944;-72
2023/09/03 12:41:17;;;;;;;;;;;32.10;30.40;;;;;;7403418;19;19927;-72
2023/09/03 12:43:43;;;;;;;5.07;2.05;;;32.20;30.50;;;;;;7403246;19;20262;-72
2023/09/03 12:46:12;;;;;;;11.30;3.88;;;32.00;30.50;;;;;;7401137;19;19922;-71
2023/09/03 12:48:38;;;;;;;6.70;3.38;;;32.00;30.40;;;;;;7402981;19;20738;-71
2023/09/03 12:51:04;;;;;;;;;;;32.10;30.50;;;;;;7404599;19;19942;-71
2023/09/03 12:53:29;;;;;;;6.57;3.60;;;32.30;30.40;;;;;;7402667;19;20342;-70